createdAt,value
2023-05-25T12:22:40.407Z,46.50
2023-05-25T12:25:08.403Z,43.89
2023-05-25T12:27:35.081Z,41.68
2023-05-25T12:30:01.686Z,40.91
2023-05-25T12:32:28.426Z,40.26
2023-05-25T12:35:08.029Z,40.43
2023-05-25T12:37:34.655Z,39.28
2023-05-25T12:40:01.297Z,39.20
2023-05-25T12:42:30.020Z,38.78
2023-05-25T12:44:59.012Z,38.31
2023-05-25T12:47:28.593Z,38.57
2023-05-25T12:50:12.605Z,36.68
2023-05-25T12:52:44.308Z,37.29
2023-05-25T12:55:27.494Z,36.85
2023-05-25T12:57:59.402Z,36.40
2023-05-25T13:00:34.018Z,36.55
2023-05-25T13:03:01.032Z,35.95
2023-05-25T13:05:33.967Z,36.24
2023-05-25T13:08:01.848Z,36.64
2023-05-25T13:10:35.713Z,37.53
2023-05-25T13:13:02.278Z,37.56
2023-05-25T13:15:29.089Z,36.90
2023-05-25T13:17:58.494Z,36.61
2023-05-25T13:20:26.477Z,36.49
2023-05-25T13:22:56.705Z,36.74
2023-05-25T13:25:28.265Z,36.43
2023-05-25T13:27:57.710Z,36.91
2023-05-25T13:30:26.447Z,36.89
2023-05-25T13:32:53.271Z,37.51
2023-05-25T13:35:37.166Z,37.21
2023-05-25T13:38:04.032Z,37.42
2023-05-25T13:40:30.633Z,37.08
2023-05-25T13:42:57.595Z,36.33
2023-05-25T13:45:24.554Z,35.56
2023-05-25T13:47:52.052Z,35.35
2023-05-25T13:50:18.770Z,35.10
2023-05-25T13:52:45.406Z,34.94
2023-05-25T13:55:12.122Z,35.01
2023-05-25T13:57:38.747Z,35.92
2023-05-25T14:00:07.587Z,35.88
2023-05-25T14:02:35.418Z,36.35
2023-05-25T14:05:03.044Z,36.44
2023-05-25T14:07:30.043Z,35.91
2023-05-25T14:09:58.120Z,36.30
2023-05-25T14:12:25.429Z,35.91
2023-05-25T14:14:52.003Z,35.77
2023-05-25T14:17:18.587Z,35.67
2023-05-25T14:19:45.316Z,35.86
2023-05-25T14:22:14.373Z,34.30
2023-05-25T14:24:41.672Z,34.05
2023-05-25T14:27:08.463Z,33.78
2023-05-25T14:29:35.052Z,34.49
2023-05-25T14:32:01.882Z,33.73
2023-05-25T14:34:29.447Z,34.14
2023-05-25T14:36:56.181Z,34.34
2023-05-25T14:39:22.809Z,34.45
2023-05-25T14:41:49.412Z,34.76
2023-05-25T14:44:16.479Z,34.68
2023-05-25T14:46:43.299Z,35.39
2023-05-25T14:49:10.052Z,35.02
2023-05-25T14:51:37.710Z,34.52
2023-05-25T14:54:06.155Z,34.35
2023-05-25T14:56:32.715Z,34.69
2023-05-25T14:58:59.284Z,34.76
2023-05-25T15:01:26.173Z,34.31
2023-05-25T15:03:53.012Z,33.87
2023-05-25T15:06:19.803Z,34.00
2023-05-25T15:08:46.418Z,33.46
2023-05-25T15:11:13.016Z,34.32
2023-05-25T15:13:40.847Z,34.09
2023-05-25T15:16:11.163Z,34.45
2023-05-25T15:18:37.819Z,33.90
2023-05-25T15:21:04.439Z,34.43
2023-05-25T15:23:32.005Z,33.77
2023-05-25T15:26:03.057Z,33.34
2023-05-25T15:28:32.956Z,33.33
2023-05-25T15:31:02.513Z,33.12
2023-05-25T15:33:44.481Z,32.50
2023-05-25T15:36:14.903Z,32.24
2023-05-25T15:38:43.364Z,32.69
2023-05-25T15:41:11.323Z,33.14
2023-05-25T15:43:38.002Z,32.43
2023-05-25T15:46:04.604Z,32.33
2023-05-25T15:48:31.184Z,32.86
2023-05-25T15:50:57.752Z,33.13
2023-05-25T15:53:24.398Z,33.64
2023-05-25T15:55:51.517Z,33.05
2023-05-25T15:58:18.367Z,33.23
2023-05-25T16:00:44.957Z,32.65
2023-05-25T16:03:11.636Z,32.41
2023-05-25T16:05:38.300Z,32.96
2023-05-25T16:08:04.870Z,32.35
2023-05-25T16:10:31.447Z,32.64
2023-05-25T16:12:58.047Z,32.44
2023-05-25T16:15:24.651Z,32.32
2023-05-25T16:17:51.279Z,32.18
2023-05-25T16:20:17.923Z,32.42
2023-05-25T16:22:44.560Z,32.37
2023-05-25T16:25:11.396Z,32.50
2023-05-25T16:27:38.022Z,32.53
2023-05-25T16:30:05.328Z,33.01
2023-05-25T16:32:32.730Z,33.16
2023-05-25T16:34:59.513Z,32.91
2023-05-25T16:37:26.082Z,32.61
2023-05-25T16:39:52.802Z,32.46
2023-05-25T16:42:19.790Z,32.38
2023-05-25T16:44:46.362Z,32.12
2023-05-25T16:47:12.978Z,31.83
2023-05-25T16:49:39.543Z,31.13
2023-05-25T16:52:06.282Z,31.35
2023-05-25T16:54:32.833Z,31.49
2023-05-25T16:56:59.452Z,31.52
2023-05-25T16:59:26.053Z,31.84
2023-05-25T17:01:52.939Z,32.13
2023-05-25T17:04:19.682Z,32.15
2023-05-25T17:06:46.320Z,32.00
2023-05-25T17:09:13.008Z,32.31
2023-05-25T17:11:39.594Z,32.19
2023-05-25T17:14:06.254Z,32.25
2023-05-25T17:16:32.936Z,32.39
2023-05-25T17:18:59.547Z,32.95
2023-05-25T17:21:27.001Z,32.58
2023-05-25T17:23:53.592Z,32.56
2023-05-25T17:26:20.261Z,33.07
2023-05-25T17:28:47.001Z,32.80
2023-05-25T17:31:13.638Z,32.72
2023-05-25T17:33:40.322Z,33.16
2023-05-25T17:36:07.508Z,33.22
2023-05-25T17:38:36.888Z,32.80
